createdAt,value
2023-05-02T02:42:43.314Z,30.23
2023-05-02T02:45:19.030Z,24.00
2023-05-02T02:47:51.350Z,21.30
2023-05-02T02:50:54.710Z,14.82
2023-05-02T03:05:56.419Z,11.75
2023-05-02T03:08:26.514Z,14.75
2023-05-02T03:10:56.186Z,17.88
2023-05-02T03:13:25.314Z,11.93
2023-05-02T03:15:54.896Z,13.55
2023-05-02T03:18:30.205Z,13.90
2023-05-02T03:20:59.602Z,10.85
2023-05-02T03:23:28.765Z,10.98
2023-05-02T03:25:57.834Z,11.48
2023-05-02T03:28:28.825Z,9.32
2023-05-02T03:30:58.888Z,11.38
2023-05-02T03:57:40.819Z,21.42
2023-05-02T04:00:13.801Z,14.32
2023-05-02T04:28:34.180Z,12.05
2023-05-02T04:45:34.023Z,18.20
2023-05-02T04:48:03.886Z,14.60
2023-05-02T05:00:23.044Z,15.77
2023-05-02T06:04:37.900Z,2.33
2023-05-02T06:07:06.793Z,5.20
2023-05-02T06:09:35.557Z,3.73
2023-05-02T06:25:01.837Z,2.60
2023-05-02T06:27:32.953Z,3.50
2023-05-02T06:44:35.991Z,8.10
2023-05-02T06:58:59.138Z,11.17
2023-05-02T07:01:28.169Z,10.48
2023-05-02T07:10:26.129Z,9.68
2023-05-02T07:12:55.552Z,8.70
2023-05-02T07:15:24.637Z,7.80
2023-05-02T07:17:53.579Z,9.05
2023-05-02T07:20:22.682Z,8.02
2023-05-02T07:22:52.227Z,7.60
2023-05-02T07:34:31.329Z,20.23
2023-05-02T07:37:03.547Z,25.10
2023-05-02T07:39:34.848Z,16.77
2023-05-02T07:42:04.714Z,23.00
2023-05-02T07:44:37.988Z,17.98
2023-05-02T07:47:07.444Z,11.93
2023-05-02T07:49:37.833Z,8.63
2023-05-02T07:52:07.047Z,7.75
2023-05-02T07:54:36.889Z,7.45
2023-05-02T07:57:09.175Z,7.38
2023-05-02T07:59:38.054Z,8.27
2023-05-02T08:02:07.351Z,7.40
2023-05-02T08:04:36.505Z,5.97
2023-05-02T08:07:05.467Z,6.40
2023-05-02T08:09:34.781Z,6.38
2023-05-02T08:12:04.220Z,5.10
2023-05-02T08:14:33.310Z,5.50
2023-05-02T08:17:02.641Z,4.70
2023-05-02T08:19:31.549Z,5.25
2023-05-02T08:22:00.671Z,5.43
2023-05-02T08:24:29.585Z,5.20
2023-05-02T08:26:59.031Z,5.30
2023-05-02T08:29:27.841Z,5.88
2023-05-02T08:31:57.113Z,5.22
2023-05-02T08:34:26.914Z,6.03
2023-05-02T08:36:58.266Z,5.50
2023-05-02T08:39:27.441Z,5.15
2023-05-02T08:41:56.659Z,5.50
2023-05-02T08:44:25.555Z,4.70
2023-05-02T08:46:55.667Z,4.22
2023-05-02T08:49:26.990Z,3.70
2023-05-02T08:51:58.339Z,3.60
2023-05-02T08:54:28.213Z,3.25
2023-05-02T08:57:00.628Z,3.30
2023-05-02T08:59:29.574Z,3.42
2023-05-02T09:02:14.395Z,3.17
2023-05-02T09:04:44.659Z,3.70
2023-05-02T09:07:13.730Z,3.38
2023-05-02T09:09:42.602Z,3.55
2023-05-02T09:12:11.563Z,3.45
2023-05-02T09:14:46.056Z,3.72
2023-05-02T09:17:17.529Z,3.70
2023-05-02T09:19:47.139Z,3.43
2023-05-02T09:22:24.883Z,3.55
2023-05-02T09:25:00.272Z,3.45
2023-05-02T09:27:29.919Z,3.30
2023-05-02T09:30:35.304Z,3.10
2023-05-02T09:33:10.105Z,3.17
2023-05-02T09:35:56.741Z,3.42
2023-05-02T09:38:26.631Z,3.92
2023-05-02T09:40:58.584Z,3.92
2023-05-02T09:43:31.513Z,3.50
2023-05-02T09:46:09.501Z,4.05
2023-05-02T09:51:41.055Z,3.72
2023-05-02T09:54:11.341Z,3.95
2023-05-02T09:56:58.275Z,4.00
2023-05-02T09:59:29.613Z,4.35
2023-05-02T10:02:10.552Z,4.43
2023-05-02T10:04:40.840Z,4.07
2023-05-02T10:07:11.724Z,4.20
2023-05-02T10:09:46.569Z,4.93
2023-05-02T10:12:22.314Z,4.90
2023-05-02T10:15:02.781Z,4.25
2023-05-02T10:17:36.914Z,4.63
2023-05-02T10:20:07.945Z,4.45
2023-05-02T10:22:37.914Z,4.75
2023-05-02T10:25:08.005Z,4.72
2023-05-02T10:27:38.681Z,4.95
2023-05-02T10:30:09.353Z,4.63
2023-05-02T10:32:39.393Z,4.90
2023-05-02T10:35:09.410Z,4.10
2023-05-02T10:37:41.743Z,4.50
2023-05-02T10:40:14.569Z,4.05
2023-05-02T10:42:50.660Z,4.90
2023-05-02T10:45:37.009Z,4.50
2023-05-02T10:48:20.366Z,4.63
2023-05-02T10:50:52.370Z,4.27
2023-05-02T10:53:33.362Z,4.22
2023-05-02T10:56:16.387Z,4.65
2023-05-02T10:58:47.573Z,4.57
2023-05-02T11:01:39.508Z,4.40
2023-05-02T11:06:59.770Z,4.32
2023-05-02T11:09:28.903Z,4.13
2023-05-02T11:11:58.470Z,3.80
2023-05-02T11:14:30.729Z,3.50
2023-05-02T11:17:02.586Z,3.63
2023-05-02T11:19:59.781Z,3.40
2023-05-02T11:22:35.501Z,4.38
2023-05-02T11:25:06.418Z,4.13
2023-05-02T11:27:39.190Z,4.22
2023-05-02T11:30:10.164Z,3.72
2023-05-02T11:32:51.896Z,3.75
2023-05-02T11:35:23.771Z,3.95
2023-05-02T11:38:08.313Z,4.88
2023-05-02T11:40:37.252Z,6.57
2023-05-02T11:43:17.818Z,5.43
2023-05-02T11:45:47.267Z,5.45
2023-05-02T11:48:20.987Z,4.85
2023-05-02T11:50:57.287Z,4.17
2023-05-02T11:53:30.284Z,3.85
2023-05-02T11:56:02.657Z,4.40
2023-05-02T11:58:36.136Z,4.20
2023-05-02T12:25:35.031Z,6.85
2023-05-02T12:28:04.801Z,10.02
